Time;durP1;ratioP1;P1;durP2;ratioP2;P2;SDS_P1;SDS_P2;PMS_P1;PMS_P2;Temp;Humidity;BMP_temperature;BMP_pressure;BME280_temperature;BME280_humidity;BME280_pressure;Samples;Min_cycle;Max_cycle;Signal;HPM_P1;HPM_P2
2024/03/23 00:01:44;;;;;;;22.30;6.60;;;;;;;;;;6186276;23;20100;-75
2024/03/23 00:04:10;;;;;;;17.50;6.05;;;;;;;;;;6135607;23;20087;-74
2024/03/23 00:06:36;;;;;;;19.23;6.72;;;;;;;;;;6189090;23;20016;-74
2024/03/23 00:09:02;;;;;;;14.65;5.88;;;;;;;;;;6186257;23;20313;-73
2024/03/23 00:11:29;;;;;;;18.98;5.53;;;;;;;;;;6139774;23;20025;-74
2024/03/23 00:13:57;;;;;;;23.30;6.20;;;;;;;;;;6188589;23;20103;-75
2024/03/23 00:16:25;;;;;;;17.95;5.45;;;;;;;;;;6185547;23;20024;-75
2024/03/23 00:18:51;;;;;;;19.02;5.55;;;;;;;;;;6189492;23;20020;-74
2024/03/23 00:21:17;;;;;;;16.48;5.85;;;;;;;;;;6185033;23;20016;-73
2024/03/23 00:23:44;;;;;;;15.63;5.82;;;;;;;;;;6159907;23;20024;-75
2024/03/23 00:26:09;;;;;;;16.17;5.28;;;;;;;;;;6130128;23;20028;-74
2024/03/23 00:28:36;;;;;;;19.80;5.38;;;;;;;;;;6133177;23;20026;-74
2024/03/23 00:31:02;;;;;;;16.33;5.25;;;;;;;;;;6159595;23;20025;-74
2024/03/23 00:33:28;;;;;;;16.27;4.85;;;;;;;;;;6152219;23;20059;-77
2024/03/23 00:35:54;;;;;;;13.88;4.38;;;;;;;;;;6183109;23;20124;-76
2024/03/23 00:38:24;;;;;;;15.85;5.25;;;;;;;;;;6156843;23;20078;-75
2024/03/23 00:40:51;;;;;;;14.57;4.97;;;;;;;;;;6137276;23;20435;-75
2024/03/23 00:43:17;;;;;;;16.55;5.07;;;;;;;;;;6182305;23;20043;-76
2024/03/23 00:45:44;;;;;;;13.95;4.60;;;;;;;;;;6151337;23;20624;-77
2024/03/23 00:48:10;;;;;;;14.65;4.43;;;;;;;;;;6136322;23;20016;-76
2024/03/23 00:50:36;;;;;;;15.23;4.50;;;;;;;;;;6154325;23;20035;-75
2024/03/23 00:53:02;;;;;;;14.55;4.70;;;;;;;;;;6159758;23;20095;-75
2024/03/23 00:55:27;;;;;;;16.23;4.47;;;;;;;;;;6158842;23;20024;-77
2024/03/23 00:57:53;;;;;;;11.82;3.97;;;;;;;;;;6155156;23;20470;-76
2024/03/23 01:00:18;;;;;;;10.25;4.03;;;;;;;;;;6185212;23;20098;-76
2024/03/23 01:02:44;;;;;;;14.10;4.50;;;;;;;;;;6158339;23;20092;-75
2024/03/23 01:05:09;;;;;;;16.85;5.60;;;;;;;;;;6187378;23;20031;-75
2024/03/23 01:07:35;;;;;;;12.88;4.22;;;;;;;;;;6185444;23;20028;-74
2024/03/23 01:10:00;;;;;;;17.70;4.60;;;;;;;;;;6162350;23;20024;-74
2024/03/23 01:12:25;;;;;;;16.15;4.32;;;;;;;;;;6187614;23;20020;-75
2024/03/23 01:14:51;;;;;;;10.85;3.50;;;;;;;;;;6159807;23;20063;-74
2024/03/23 01:17:16;;;;;;;14.93;4.40;;;;;;;;;;6162164;23;20071;-75
2024/03/23 01:19:42;;;;;;;12.00;4.00;;;;;;;;;;6183912;23;20071;-73
2024/03/23 01:22:09;;;;;;;11.30;3.65;;;;;;;;;;6163564;23;20095;-74
2024/03/23 01:24:35;;;;;;;17.23;4.07;;;;;;;;;;6187789;23;20032;-74
2024/03/23 01:27:01;;;;;;;11.05;3.60;;;;;;;;;;6184119;23;20346;-74
2024/03/23 01:29:28;;;;;;;16.98;3.40;;;;;;;;;;6163097;23;20036;-73
2024/03/23 01:31:53;;;;;;;12.20;3.90;;;;;;;;;;6185377;23;20039;-73
2024/03/23 01:34:20;;;;;;;12.98;3.70;;;;;;;;;;6188559;23;20455;-73
2024/03/23 01:36:46;;;;;;;12.10;3.67;;;;;;;;;;6163255;23;20017;-74
2024/03/23 01:39:12;;;;;;;13.57;4.32;;;;;;;;;;6186319;23;20020;-70
2024/03/23 01:41:42;;;;;;;16.30;4.50;;;;;;;;;;6185592;23;20028;-77
2024/03/23 01:44:07;;;;;;;12.85;3.72;;;;;;;;;;6163684;23;20086;-77
2024/03/23 01:46:33;;;;;;;14.43;4.07;;;;;;;;;;6165120;23;20024;-77
2024/03/23 01:48:59;;;;;;;14.18;4.07;;;;;;;;;;6190863;23;20043;-75
2024/03/23 01:51:28;;;;;;;17.75;4.22;;;;;;;;;;6190738;23;20140;-75
2024/03/23 01:53:54;;;;;;;13.27;4.13;;;;;;;;;;6188547;23;20040;-75
2024/03/23 01:56:20;;;;;;;10.90;3.60;;;;;;;;;;6162372;23;20460;-76
2024/03/23 01:58:47;;;;;;;12.35;3.55;;;;;;;;;;6190682;23;20083;-72
2024/03/23 02:01:13;;;;;;;14.88;4.38;;;;;;;;;;6165939;23;20454;-73
2024/03/23 02:03:39;;;;;;;14.23;4.43;;;;;;;;;;6191305;23;20020;-74
2024/03/23 02:06:07;;;;;;;14.25;3.63;;;;;;;;;;6189728;23;20403;-73
2024/03/23 02:08:33;;;;;;;15.45;3.85;;;;;;;;;;6161904;23;20021;-72
2024/03/23 02:10:58;;;;;;;15.13;4.47;;;;;;;;;;6189644;23;20418;-72
2024/03/23 02:13:24;;;;;;;10.07;3.08;;;;;;;;;;6187795;23;20021;-72
2024/03/23 02:15:49;;;;;;;12.27;4.10;;;;;;;;;;6190161;23;20095;-72
2024/03/23 02:18:15;;;;;;;10.82;3.90;;;;;;;;;;6188145;23;20020;-72
2024/03/23 02:20:40;;;;;;;12.75;3.80;;;;;;;;;;6179391;23;20024;-77
2024/03/23 02:23:12;;;;;;;15.13;4.15;;;;;;;;;;6177365;23;20055;-76
2024/03/23 02:25:37;;;;;;;12.80;4.35;;;;;;;;;;6149363;23;20028;-78
2024/03/23 02:28:03;;;;;;;17.52;5.00;;;;;;;;;;6157684;23;20025;-79
2024/03/23 02:30:29;;;;;;;12.75;4.65;;;;;;;;;;6152192;23;20024;-78
2024/03/23 02:32:54;;;;;;;15.95;5.25;;;;;;;;;;6158185;23;20024;-78
2024/03/23 02:35:19;;;;;;;16.73;5.55;;;;;;;;;;6178707;23;20016;-78
2024/03/23 02:37:46;;;;;;;14.65;5.43;;;;;;;;;;6169828;23;20075;-79
2024/03/23 02:40:11;;;;;;;12.85;5.70;;;;;;;;;;6157408;23;20036;-77
2024/03/23 02:42:37;;;;;;;15.57;5.38;;;;;;;;;;6175713;23;20024;-78
2024/03/23 02:45:04;;;;;;;17.88;5.60;;;;;;;;;;6157608;23;20028;-79
2024/03/23 02:47:30;;;;;;;17.15;5.80;;;;;;;;;;6176286;23;20024;-78
2024/03/23 02:49:55;;;;;;;17.83;5.82;;;;;;;;;;6176400;23;20074;-77
2024/03/23 02:52:21;;;;;;;24.00;6.72;;;;;;;;;;6176228;23;20024;-78
2024/03/23 02:54:46;;;;;;;15.43;5.65;;;;;;;;;;6173196;23;20027;-77
2024/03/23 02:57:12;;;;;;;17.00;5.93;;;;;;;;;;6182159;23;20026;-79
2024/03/23 02:59:37;;;;;;;18.55;6.32;;;;;;;;;;6149118;23;20021;-77
2024/03/23 03:02:04;;;;;;;18.42;5.57;;;;;;;;;;6181823;23;20028;-78
2024/03/23 03:04:30;;;;;;;13.80;6.13;;;;;;;;;;6177384;23;20039;-78
2024/03/23 03:06:55;;;;;;;11.15;5.40;;;;;;;;;;6170574;23;20530;-79
2024/03/23 03:09:21;;;;;;;14.43;6.07;;;;;;;;;;6182098;23;20031;-79
2024/03/23 03:11:46;;;;;;;20.65;7.07;;;;;;;;;;6173741;23;20036;-78
2024/03/23 03:14:12;;;;;;;18.38;6.97;;;;;;;;;;6156896;23;20078;-79
2024/03/23 03:16:37;;;;;;;17.33;6.60;;;;;;;;;;6153263;23;20036;-78
2024/03/23 03:19:03;;;;;;;18.13;6.68;;;;;;;;;;6172911;23;20019;-78
2024/03/23 03:21:28;;;;;;;17.55;6.97;;;;;;;;;;6182000;23;20027;-79
2024/03/23 03:23:56;;;;;;;25.23;7.70;;;;;;;;;;6174655;23;20445;-78
2024/03/23 03:26:21;;;;;;;18.63;7.57;;;;;;;;;;6183547;23;20028;-78
2024/03/23 03:28:48;;;;;;;22.92;7.85;;;;;;;;;;6174313;23;20112;-77
2024/03/23 03:31:15;;;;;;;28.05;9.35;;;;;;;;;;6164404;23;20032;-74
2024/03/23 03:33:40;;;;;;;17.85;7.38;;;;;;;;;;6214821;23;20020;-75
2024/03/23 03:36:06;;;;;;;20.58;7.38;;;;;;;;;;6188776;23;20451;-74
2024/03/23 03:38:31;;;;;;;21.15;7.63;;;;;;;;;;6188923;23;20070;-73
2024/03/23 03:40:58;;;;;;;23.20;7.97;;;;;;;;;;6188443;23;20406;-73
2024/03/23 03:43:24;;;;;;;16.85;7.82;;;;;;;;;;6190034;23;20017;-73
2024/03/23 03:45:53;;;;;;;18.83;7.60;;;;;;;;;;6188639;23;20498;-76
2024/03/23 03:48:21;;;;;;;19.52;8.10;;;;;;;;;;6162948;23;20017;-75
2024/03/23 03:50:47;;;;;;;22.48;8.13;;;;;;;;;;6189071;23;20340;-76
2024/03/23 03:53:12;;;;;;;26.00;8.80;;;;;;;;;;6187154;23;20082;-76
2024/03/23 03:55:38;;;;;;;20.45;8.30;;;;;;;;;;6188714;23;20083;-75
2024/03/23 03:58:04;;;;;;;22.85;9.25;;;;;;;;;;6188047;23;20351;-75
2024/03/23 04:00:30;;;;;;;23.58;9.10;;;;;;;;;;6186637;23;20020;-74
2024/03/23 04:02:55;;;;;;;21.05;9.07;;;;;;;;;;6188731;23;20358;-73
2024/03/23 04:05:21;;;;;;;26.02;9.02;;;;;;;;;;6187839;23;20103;-73
2024/03/23 04:07:47;;;;;;;25.10;8.55;;;;;;;;;;6189105;23;20025;-73
2024/03/23 04:10:13;;;;;;;28.20;9.00;;;;;;;;;;6188318;23;20051;-73
2024/03/23 04:12:38;;;;;;;25.88;8.48;;;;;;;;;;6189037;23;20029;-73
2024/03/23 04:15:04;;;;;;;16.67;7.68;;;;;;;;;;6189491;23;20028;-73
2024/03/23 04:17:32;;;;;;;19.90;8.13;;;;;;;;;;6187272;23;20032;-74
2024/03/23 04:19:58;;;;;;;22.60;9.05;;;;;;;;;;6189165;23;20016;-73
2024/03/23 04:22:25;;;;;;;19.73;7.78;;;;;;;;;;6187205;23;20529;-72
2024/03/23 04:24:55;;;;;;;21.63;8.32;;;;;;;;;;6188341;23;20435;-74
2024/03/23 04:27:20;;;;;;;18.42;7.80;;;;;;;;;;6188723;23;20325;-73
2024/03/23 04:29:52;;;;;;;21.67;7.53;;;;;;;;;;6188803;23;20075;-73
2024/03/23 04:32:18;;;;;;;21.98;7.63;;;;;;;;;;6189443;23;20016;-74
2024/03/23 04:34:44;;;;;;;18.23;7.72;;;;;;;;;;6187870;23;20017;-73
2024/03/23 04:37:10;;;;;;;20.40;7.22;;;;;;;;;;6188957;23;20021;-73
2024/03/23 04:39:38;;;;;;;23.55;7.25;;;;;;;;;;6185168;23;20135;-73
2024/03/23 04:42:04;;;;;;;;;;;;;;;;;;6189533;23;20082;-74
2024/03/23 04:44:30;;;;;;;21.08;6.45;;;;;;;;;;6189319;23;19920;-73
2024/03/23 04:46:56;;;;;;;19.10;6.35;;;;;;;;;;6187850;23;20023;-74
2024/03/23 04:49:21;;;;;;;16.88;5.97;;;;;;;;;;6188826;23;20016;-74
2024/03/23 04:51:47;;;;;;;21.48;6.50;;;;;;;;;;6186728;23;20024;-74
2024/03/23 04:54:12;;;;;;;24.02;6.28;;;;;;;;;;6187664;23;20025;-73
2024/03/23 04:56:38;;;;;;;15.45;5.72;;;;;;;;;;6187593;23;20059;-73
2024/03/23 04:59:05;;;;;;;17.27;5.15;;;;;;;;;;6163300;23;20355;-73
2024/03/23 05:01:30;;;;;;;17.40;5.53;;;;;;;;;;6164887;23;20027;-73
2024/03/23 05:03:56;;;;;;;15.27;5.28;;;;;;;;;;6187623;23;20021;-73
2024/03/23 05:06:22;;;;;;;19.30;5.20;;;;;;;;;;6164548;23;20016;-73
2024/03/23 05:08:48;;;;;;;13.80;5.03;;;;;;;;;;6186436;23;20040;-73
2024/03/23 05:11:15;;;;;;;16.90;5.28;;;;;;;;;;6164528;23;20051;-73
2024/03/23 05:13:41;;;;;;;19.38;5.72;;;;;;;;;;6189282;23;20028;-73
2024/03/23 05:16:06;;;;;;;17.15;4.95;;;;;;;;;;6186011;23;20056;-73
2024/03/23 05:18:32;;;;;;;16.67;5.32;;;;;;;;;;6187643;23;20406;-73
2024/03/23 05:20:58;;;;;;;16.92;5.18;;;;;;;;;;6187733;23;20008;-73
2024/03/23 05:23:28;;;;;;;18.63;5.05;;;;;;;;;;6189700;23;20442;-74
2024/03/23 05:25:53;;;;;;;24.75;6.20;;;;;;;;;;6162830;23;20027;-73
2024/03/23 05:28:19;;;;;;;16.67;4.70;;;;;;;;;;6188251;23;20099;-73
2024/03/23 05:30:50;;;;;;;22.42;4.15;;;;;;;;;;6188724;23;20091;-74
2024/03/23 05:33:15;;;;;;;10.30;4.28;;;;;;;;;;6186416;23;20021;-73
2024/03/23 05:35:40;;;;;;;19.95;4.95;;;;;;;;;;6188899;23;20348;-73
2024/03/23 05:38:06;;;;;;;19.70;4.93;;;;;;;;;;6187622;23;20491;-73
2024/03/23 05:40:31;;;;;;;15.70;4.47;;;;;;;;;;6188370;23;20044;-74
2024/03/23 05:42:57;;;;;;;15.05;4.40;;;;;;;;;;6163992;23;20355;-73
2024/03/23 05:45:22;;;;;;;16.65;5.07;;;;;;;;;;6186903;23;20021;-73
2024/03/23 05:47:48;;;;;;;18.20;4.97;;;;;;;;;;6188706;23;20025;-73
2024/03/23 05:50:13;;;;;;;18.08;4.60;;;;;;;;;;6186871;23;20060;-73
2024/03/23 05:52:39;;;;;;;18.50;5.13;;;;;;;;;;6164431;23;20024;-73
2024/03/23 05:55:05;;;;;;;14.30;4.32;;;;;;;;;;6164105;23;20493;-73
2024/03/23 05:57:31;;;;;;;17.42;4.93;;;;;;;;;;6185758;23;20055;-73
2024/03/23 05:59:56;;;;;;;15.52;4.32;;;;;;;;;;6188277;23;20024;-73
2024/03/23 06:02:22;;;;;;;16.67;4.30;;;;;;;;;;6187374;23;20021;-73
2024/03/23 06:04:47;;;;;;;16.25;4.40;;;;;;;;;;6189151;23;20360;-73
2024/03/23 06:07:13;;;;;;;16.27;4.60;;;;;;;;;;6186836;23;20017;-72
2024/03/23 06:09:39;;;;;;;15.95;3.95;;;;;;;;;;6187149;23;20024;-72
2024/03/23 06:12:05;;;;;;;22.88;3.90;;;;;;;;;;6163060;23;20024;-72
2024/03/23 06:14:31;;;;;;;12.95;4.20;;;;;;;;;;6185372;23;20024;-73
2024/03/23 06:16:56;;;;;;;14.10;3.65;;;;;;;;;;6163568;23;20024;-72
2024/03/23 06:19:22;;;;;;;15.73;4.20;;;;;;;;;;6186966;23;20027;-73
2024/03/23 06:21:47;;;;;;;13.65;4.18;;;;;;;;;;6188970;23;20024;-73
2024/03/23 06:24:13;;;;;;;11.40;3.85;;;;;;;;;;6188458;23;20024;-72
2024/03/23 06:26:38;;;;;;;18.25;4.53;;;;;;;;;;6185629;23;20451;-72
2024/03/23 06:29:05;;;;;;;12.05;3.38;;;;;;;;;;6188985;23;20521;-73
2024/03/23 06:31:30;;;;;;;11.43;3.67;;;;;;;;;;6187390;23;20021;-72
2024/03/23 06:33:56;;;;;;;15.00;4.05;;;;;;;;;;6189793;23;20054;-73
2024/03/23 06:36:21;;;;;;;12.50;3.47;;;;;;;;;;6189566;23;20424;-72
2024/03/23 06:38:47;;;;;;;10.40;3.30;;;;;;;;;;6189367;23;20085;-73
2024/03/23 06:41:12;;;;;;;11.38;3.35;;;;;;;;;;6164096;23;20021;-72
2024/03/23 06:43:38;;;;;;;12.57;2.53;;;;;;;;;;6187410;23;20017;-73
2024/03/23 06:46:04;;;;;;;13.20;3.47;;;;;;;;;;6165456;23;20016;-72
2024/03/23 06:48:30;;;;;;;15.23;4.22;;;;;;;;;;6188124;23;20376;-73
2024/03/23 06:50:58;;;;;;;11.45;3.17;;;;;;;;;;6190198;23;20021;-72
2024/03/23 06:53:24;;;;;;;17.42;5.25;;;;;;;;;;6189599;23;20055;-74
2024/03/23 06:55:53;;;;;;;17.50;3.33;;;;;;;;;;6186008;23;20020;-72
2024/03/23 06:58:19;;;;;;;13.10;3.95;;;;;;;;;;6188800;23;20347;-72
2024/03/23 07:00:44;;;;;;;18.48;3.50;;;;;;;;;;6162276;23;20074;-72
2024/03/23 07:03:10;;;;;;;12.32;3.55;;;;;;;;;;6189296;23;20021;-73
2024/03/23 07:05:36;;;;;;;15.20;3.42;;;;;;;;;;6161779;23;20390;-72
2024/03/23 07:08:01;;;;;;;10.63;3.25;;;;;;;;;;6161715;23;20025;-73
2024/03/23 07:10:27;;;;;;;14.18;3.72;;;;;;;;;;6161871;23;20025;-75
2024/03/23 07:12:52;;;;;;;13.43;3.50;;;;;;;;;;6186564;23;20017;-73
2024/03/23 07:15:18;;;;;;;10.57;3.42;;;;;;;;;;6164363;23;20055;-73
2024/03/23 07:17:46;;;;;;;15.32;3.63;;;;;;;;;;6162298;23;20028;-73
2024/03/23 07:20:13;;;;;;;14.02;3.40;;;;;;;;;;6165486;23;20021;-73
2024/03/23 07:22:38;;;;;;;14.27;3.65;;;;;;;;;;6163325;23;20395;-75
2024/03/23 07:25:06;;;;;;;16.83;4.18;;;;;;;;;;6185322;23;20024;-73
2024/03/23 07:27:31;;;;;;;15.45;3.13;;;;;;;;;;6165076;23;20043;-73
2024/03/23 07:29:57;;;;;;;20.67;3.80;;;;;;;;;;6162550;23;20028;-73
2024/03/23 07:32:23;;;;;;;16.13;3.35;;;;;;;;;;6164465;23;20098;-73
2024/03/23 07:34:48;;;;;;;12.40;3.03;;;;;;;;;;6188117;23;20339;-72
2024/03/23 07:37:14;;;;;;;13.68;2.90;;;;;;;;;;6161886;23;20021;-72
2024/03/23 07:39:40;;;;;;;9.98;2.95;;;;;;;;;;6163444;23;20017;-71
2024/03/23 07:42:06;;;;;;;12.48;2.88;;;;;;;;;;6161409;23;20031;-74
2024/03/23 07:44:31;;;;;;;14.32;3.22;;;;;;;;;;6164127;23;20023;-72
2024/03/23 07:46:58;;;;;;;11.43;3.05;;;;;;;;;;6187302;23;20027;-74
2024/03/23 07:49:24;;;;;;;13.35;2.75;;;;;;;;;;6164770;23;20004;-74
2024/03/23 07:51:50;;;;;;;16.90;3.08;;;;;;;;;;6163497;23;20059;-75
2024/03/23 07:54:15;;;;;;;13.45;3.63;;;;;;;;;;6160454;23;20086;-73
2024/03/23 07:56:40;;;;;;;9.65;2.42;;;;;;;;;;6189354;23;20039;-73
2024/03/23 07:59:06;;;;;;;11.20;2.60;;;;;;;;;;6162211;23;20509;-73
2024/03/23 08:01:31;;;;;;;15.73;3.00;;;;;;;;;;6164343;23;20028;-74
2024/03/23 08:03:57;;;;;;;12.77;2.95;;;;;;;;;;6166509;23;20074;-73
2024/03/23 08:06:23;;;;;;;12.65;3.08;;;;;;;;;;6163531;23;20091;-74
2024/03/23 08:08:59;;;;;;;12.48;2.78;;;;;;;;;;6166480;23;20031;-73
2024/03/23 08:11:34;;;;;;;17.20;3.58;;;;;;;;;;6162687;23;20395;-73
2024/03/23 08:14:01;;;;;;;10.25;2.72;;;;;;;;;;6156745;23;20021;-73
2024/03/23 08:16:27;;;;;;;18.33;3.08;;;;;;;;;;6186457;23;20021;-73
2024/03/23 08:18:52;;;;;;;16.95;3.17;;;;;;;;;;6164681;23;20025;-74
2024/03/23 08:21:18;;;;;;;10.10;2.70;;;;;;;;;;6187858;23;20351;-73
2024/03/23 08:23:43;;;;;;;11.15;3.30;;;;;;;;;;6161478;23;20088;-73
2024/03/23 08:26:14;;;;;;;9.50;2.92;;;;;;;;;;6163372;23;20130;-74
2024/03/23 08:28:39;;;;;;;12.07;2.67;;;;;;;;;;6185221;23;20016;-73
2024/03/23 08:31:06;;;;;;;16.83;2.80;;;;;;;;;;6164421;23;20058;-73
2024/03/23 08:33:31;;;;;;;8.45;2.35;;;;;;;;;;6161505;23;20017;-74
2024/03/23 08:35:58;;;;;;;17.42;2.97;;;;;;;;;;6161800;23;20075;-75
2024/03/23 08:38:24;;;;;;;12.90;3.05;;;;;;;;;;6164005;23;20020;-74
2024/03/23 08:40:57;;;;;;;9.43;2.72;;;;;;;;;;6161428;23;20024;-73
2024/03/23 08:43:22;;;;;;;9.38;2.80;;;;;;;;;;6163874;23;20361;-73
2024/03/23 08:45:48;;;;;;;8.65;1.95;;;;;;;;;;6160859;23;20031;-74
2024/03/23 08:48:13;;;;;;;7.13;1.65;;;;;;;;;;6187336;23;20047;-73
2024/03/23 08:50:38;;;;;;;13.60;2.40;;;;;;;;;;6161379;23;20021;-73
2024/03/23 08:53:05;;;;;;;10.77;2.25;;;;;;;;;;6162618;23;20051;-74
2024/03/23 08:55:31;;;;;;;13.73;2.30;;;;;;;;;;6163916;23;20016;-73
2024/03/23 08:57:56;;;;;;;10.90;2.03;;;;;;;;;;6160486;23;20067;-73
2024/03/23 09:00:22;;;;;;;14.32;2.17;;;;;;;;;;6186429;23;20027;-73
2024/03/23 09:02:48;;;;;;;9.85;1.95;;;;;;;;;;6183989;23;20332;-74
2024/03/23 09:05:13;;;;;;;8.02;1.92;;;;;;;;;;6162270;23;20079;-74
2024/03/23 09:07:39;;;;;;;7.60;1.65;;;;;;;;;;6163547;23;20025;-73
2024/03/23 09:10:05;;;;;;;9.82;1.83;;;;;;;;;;6184222;23;20024;-73
2024/03/23 09:12:30;;;;;;;7.97;1.92;;;;;;;;;;6162581;23;20023;-73
2024/03/23 09:14:55;;;;;;;7.07;1.70;;;;;;;;;;6157624;23;20020;-76
2024/03/23 09:17:21;;;;;;;12.57;1.80;;;;;;;;;;6158813;23;20537;-73
2024/03/23 09:19:46;;;;;;;9.73;2.28;;;;;;;;;;6184153;23;20031;-75
2024/03/23 09:22:12;;;;;;;6.88;2.00;;;;;;;;;;6185234;23;20016;-74
2024/03/23 09:24:38;;;;;;;9.48;1.95;;;;;;;;;;6161953;23;20017;-73
2024/03/23 09:27:04;;;;;;;7.90;1.40;;;;;;;;;;6161663;23;20027;-76
2024/03/23 09:29:29;;;;;;;7.32;1.50;;;;;;;;;;6158349;23;20021;-76
2024/03/23 09:31:55;;;;;;;5.57;1.40;;;;;;;;;;6172201;23;20025;-77
2024/03/23 09:34:20;;;;;;;8.00;1.45;;;;;;;;;;6155826;23;20021;-76
2024/03/23 09:36:47;;;;;;;5.03;1.15;;;;;;;;;;6182246;23;20759;-76
2024/03/23 09:39:13;;;;;;;4.28;1.45;;;;;;;;;;6150002;23;20025;-76
2024/03/23 09:41:39;;;;;;;6.93;1.30;;;;;;;;;;6182213;23;20030;-75
2024/03/23 09:44:05;;;;;;;6.88;1.50;;;;;;;;;;6171846;23;20074;-77
2024/03/23 09:46:34;;;;;;;6.00;1.33;;;;;;;;;;6177998;23;20356;-76
2024/03/23 09:49:00;;;;;;;12.43;1.85;;;;;;;;;;6156652;23;20024;-75
2024/03/23 09:51:25;;;;;;;8.15;1.63;;;;;;;;;;6177279;23;20031;-77
2024/03/23 09:53:52;;;;;;;12.90;1.98;;;;;;;;;;6156482;23;20021;-76
2024/03/23 09:56:17;;;;;;;14.02;1.60;;;;;;;;;;6149667;23;20766;-77
2024/03/23 09:58:42;;;;;;;8.65;1.50;;;;;;;;;;6176233;23;20025;-76
2024/03/23 10:01:08;;;;;;;12.20;1.50;;;;;;;;;;6170279;23;20032;-75
2024/03/23 10:03:42;;;;;;;9.48;1.58;;;;;;;;;;6182947;23;20100;-77
2024/03/23 10:06:07;;;;;;;7.88;1.88;;;;;;;;;;6159437;23;20692;-76
2024/03/23 10:08:33;;;;;;;7.72;1.58;;;;;;;;;;6151956;23;20032;-78
2024/03/23 10:11:11;;;;;;;6.05;1.20;;;;;;;;;;6157206;23;20099;-76
2024/03/23 10:13:40;;;;;;;8.07;1.35;;;;;;;;;;6172150;23;20020;-75
2024/03/23 10:16:06;;;;;;;11.30;1.95;;;;;;;;;;6178778;23;20474;-77
2024/03/23 10:18:36;;;;;;;6.25;1.27;;;;;;;;;;6153823;23;20095;-77
2024/03/23 10:21:05;;;;;;;8.63;2.00;;;;;;;;;;6156213;23;20035;-76
2024/03/23 10:23:30;;;;;;;8.52;1.70;;;;;;;;;;6158730;23;20120;-77
2024/03/23 10:26:11;;;;;;;5.45;1.38;;;;;;;;;;6176201;23;20031;-76
2024/03/23 10:28:37;;;;;;;6.90;1.38;;;;;;;;;;6177164;23;20777;-74
2024/03/23 10:31:11;;;;;;;6.60;1.65;;;;;;;;;;6173238;23;20032;-76
2024/03/23 10:33:36;;;;;;;10.18;1.65;;;;;;;;;;6157919;23;20043;-75
2024/03/23 10:36:02;;;;;;;6.25;1.38;;;;;;;;;;6156193;23;20383;-75
2024/03/23 10:38:29;;;;;;;7.47;2.00;;;;;;;;;;6175422;23;20682;-77
2024/03/23 10:40:55;;;;;;;5.65;1.35;;;;;;;;;;6187382;23;20016;-73
2024/03/23 10:43:21;;;;;;;5.47;1.55;;;;;;;;;;6160263;23;20475;-73
2024/03/23 10:45:46;;;;;;;7.18;1.63;;;;;;;;;;6162775;23;20127;-73
2024/03/23 10:48:12;;;;;;;11.15;1.85;;;;;;;;;;6186110;23;20024;-73
2024/03/23 10:50:37;;;;;;;5.93;1.67;;;;;;;;;;6187769;23;20024;-75
2024/03/23 10:53:03;;;;;;;7.18;1.95;;;;;;;;;;6187693;23;20020;-73
2024/03/23 10:55:31;;;;;;;12.05;2.10;;;;;;;;;;6160641;23;20021;-73
2024/03/23 10:57:59;;;;;;;10.25;2.22;;;;;;;;;;6164782;23;20021;-74
2024/03/23 11:00:25;;;;;;;6.68;1.92;;;;;;;;;;6161705;23;20055;-73
2024/03/23 11:02:50;;;;;;;9.32;2.00;;;;;;;;;;6189644;23;20024;-73
2024/03/23 11:05:28;;;;;;;7.55;1.98;;;;;;;;;;6187890;23;20033;-74
2024/03/23 11:07:54;;;;;;;10.18;2.80;;;;;;;;;;6157354;23;20024;-73
2024/03/23 11:10:30;;;;;;;6.35;1.75;;;;;;;;;;6162955;23;20451;-72
2024/03/23 11:12:58;;;;;;;6.35;1.63;;;;;;;;;;6184835;23;20069;-74
2024/03/23 11:15:24;;;;;;;6.90;1.40;;;;;;;;;;6163534;23;20021;-74
2024/03/23 11:18:02;;;;;;;8.15;1.70;;;;;;;;;;6161227;23;20028;-74
2024/03/23 11:20:31;;;;;;;9.95;2.22;;;;;;;;;;6162551;23;20020;-74
2024/03/23 11:22:57;;;;;;;6.93;1.63;;;;;;;;;;6186480;23;20032;-75
2024/03/23 11:25:23;;;;;;;8.02;2.00;;;;;;;;;;6161329;23;20021;-74
2024/03/23 11:27:52;;;;;;;9.77;1.88;;;;;;;;;;6188261;23;20025;-74
2024/03/23 11:30:22;;;;;;;7.80;2.03;;;;;;;;;;6161452;23;20032;-73
2024/03/23 11:32:48;;;;;;;8.75;2.25;;;;;;;;;;6188229;23;20124;-73
2024/03/23 11:35:33;;;;;;;5.65;1.58;;;;;;;;;;6187775;23;20027;-75
2024/03/23 11:38:02;;;;;;;10.02;1.77;;;;;;;;;;6160027;23;20020;-74
2024/03/23 11:40:27;;;;;;;8.18;2.03;;;;;;;;;;6163640;23;20339;-74
2024/03/23 11:42:57;;;;;;;5.70;1.40;;;;;;;;;;6138572;23;20024;-73
2024/03/23 11:45:23;;;;;;;9.73;2.22;;;;;;;;;;6188940;23;20027;-73
2024/03/23 11:47:48;;;;;;;7.72;1.58;;;;;;;;;;6185924;23;20016;-75
2024/03/23 11:50:20;;;;;;;6.00;1.40;;;;;;;;;;6162600;23;20025;-74
2024/03/23 11:52:46;;;;;;;6.13;1.52;;;;;;;;;;6161896;23;20028;-74
2024/03/23 11:55:11;;;;;;;4.88;1.10;;;;;;;;;;6160381;23;20020;-73
2024/03/23 11:57:37;;;;;;;7.60;1.50;;;;;;;;;;6159506;23;20028;-74
2024/03/23 12:00:19;;;;;;;7.63;1.60;;;;;;;;;;6159346;23;20027;-72
2024/03/23 12:02:45;;;;;;;4.50;1.33;;;;;;;;;;6183615;23;20711;-72
2024/03/23 12:05:14;;;;;;;7.90;1.48;;;;;;;;;;6157925;23;20031;-72
2024/03/23 12:07:40;;;;;;;6.30;2.38;;;;;;;;;;6160786;23;20020;-72
2024/03/23 12:10:07;;;;;;;4.65;1.25;;;;;;;;;;6187357;23;20481;-71
2024/03/23 12:12:32;;;;;;;4.07;1.20;;;;;;;;;;6160004;23;20017;-72
2024/03/23 12:15:02;;;;;;;6.57;1.60;;;;;;;;;;6137728;23;20111;-73
2024/03/23 12:17:28;;;;;;;6.25;1.50;;;;;;;;;;6182510;23;20017;-74
2024/03/23 12:19:54;;;;;;;9.57;1.52;;;;;;;;;;6160760;23;20470;-73
2024/03/23 12:22:23;;;;;;;7.22;1.30;;;;;;;;;;6161299;23;20047;-72
2024/03/23 12:24:49;;;;;;;6.63;1.33;;;;;;;;;;6155614;23;20075;-73
2024/03/23 12:27:15;;;;;;;8.82;2.15;;;;;;;;;;6184663;23;20025;-73
2024/03/23 12:29:45;;;;;;;7.97;1.50;;;;;;;;;;6182963;23;20032;-74
2024/03/23 12:32:13;;;;;;;11.43;2.55;;;;;;;;;;6186769;23;20024;-74
2024/03/23 12:34:41;;;;;;;10.63;2.10;;;;;;;;;;6184352;23;20021;-74
2024/03/23 12:37:07;;;;;;;7.78;1.60;;;;;;;;;;6187011;23;20028;-72
2024/03/23 12:39:33;;;;;;;10.48;1.67;;;;;;;;;;6163482;23;20146;-73
2024/03/23 12:41:58;;;;;;;6.25;1.55;;;;;;;;;;6159815;23;20087;-72
2024/03/23 12:44:24;;;;;;;6.13;1.70;;;;;;;;;;6162166;23;20028;-68
2024/03/23 12:46:49;;;;;;;11.77;1.85;;;;;;;;;;6160622;23;20021;-69
2024/03/23 12:49:15;;;;;;;15.02;3.13;;;;;;;;;;6176106;23;20762;-69
2024/03/23 12:51:48;;;;;;;4.90;1.63;;;;;;;;;;6176594;23;20016;-71
2024/03/23 12:54:13;;;;;;;11.95;1.83;;;;;;;;;;6169907;23;20054;-71
2024/03/23 12:56:38;;;;;;;8.02;1.98;;;;;;;;;;6176724;23;20087;-71
2024/03/23 12:59:04;;;;;;;7.07;1.70;;;;;;;;;;6165891;23;20029;-70
2024/03/23 13:01:29;;;;;;;6.90;1.38;;;;;;;;;;6172060;23;20107;-69
2024/03/23 13:03:55;;;;;;;7.07;1.70;;;;;;;;;;6173348;23;20776;-70
2024/03/23 13:06:20;;;;;;;5.47;1.30;;;;;;;;;;6175466;23;20070;-71
2024/03/23 13:08:46;;;;;;;5.85;1.60;;;;;;;;;;6177303;23;20032;-70
2024/03/23 13:11:13;;;;;;;7.93;1.42;;;;;;;;;;6170084;23;20031;-70
2024/03/23 13:13:38;;;;;;;7.30;1.50;;;;;;;;;;6172923;23;20032;-71
2024/03/23 13:16:04;;;;;;;7.15;1.40;;;;;;;;;;6165435;23;20024;-70
2024/03/23 13:18:29;;;;;;;7.65;1.73;;;;;;;;;;6177065;23;20032;-70
2024/03/23 13:20:55;;;;;;;9.70;1.35;;;;;;;;;;6176278;23;20067;-71
2024/03/23 13:23:20;;;;;;;7.43;1.23;;;;;;;;;;6169670;23;20024;-70
2024/03/23 13:25:50;;;;;;;9.00;1.30;;;;;;;;;;6176062;23;20158;-69
2024/03/23 13:28:17;;;;;;;8.75;1.63;;;;;;;;;;6166256;23;20463;-68
2024/03/23 13:30:49;;;;;;;9.40;2.00;;;;;;;;;;6171946;23;20029;-69
2024/03/23 13:33:15;;;;;;;9.90;2.30;;;;;;;;;;6175191;23;20032;-68
2024/03/23 13:35:40;;;;;;;4.88;1.58;;;;;;;;;;6168628;23;20017;-68
2024/03/23 13:38:05;;;;;;;7.40;1.48;;;;;;;;;;6178675;23;20044;-68
2024/03/23 13:40:31;;;;;;;7.18;1.20;;;;;;;;;;6172645;23;20032;-68
2024/03/23 13:42:56;;;;;;;9.95;1.90;;;;;;;;;;6174295;23;20032;-68
2024/03/23 13:45:22;;;;;;;9.95;1.52;;;;;;;;;;6168910;23;20032;-69
2024/03/23 13:47:47;;;;;;;8.60;1.52;;;;;;;;;;6174748;23;20025;-68
2024/03/23 13:50:13;;;;;;;7.60;2.05;;;;;;;;;;6178704;23;20029;-69
2024/03/23 13:52:38;;;;;;;8.75;1.67;;;;;;;;;;6170635;23;20025;-68
2024/03/23 13:55:05;;;;;;;8.75;1.50;;;;;;;;;;6152620;23;20371;-68
2024/03/23 13:57:31;;;;;;;7.90;1.67;;;;;;;;;;6166654;23;20028;-67
2024/03/23 13:59:56;;;;;;;8.55;1.40;;;;;;;;;;6174186;23;20027;-68
2024/03/23 14:02:21;;;;;;;8.70;1.60;;;;;;;;;;6178276;23;20103;-69
2024/03/23 14:04:47;;;;;;;9.63;1.83;;;;;;;;;;6171334;23;20029;-69
2024/03/23 14:07:16;;;;;;;7.53;1.23;;;;;;;;;;6178160;23;20035;-67
2024/03/23 14:09:42;;;;;;;7.63;1.98;;;;;;;;;;6169522;23;20039;-70
2024/03/23 14:12:09;;;;;;;11.95;2.03;;;;;;;;;;6172474;23;20446;-69
2024/03/23 14:14:34;;;;;;;9.63;1.48;;;;;;;;;;6176432;23;20119;-69
2024/03/23 14:17:00;;;;;;;10.40;1.92;;;;;;;;;;6170506;23;20031;-71
2024/03/23 14:19:25;;;;;;;7.80;1.42;;;;;;;;;;6177810;23;20467;-70
2024/03/23 14:21:51;;;;;;;10.70;1.85;;;;;;;;;;6170637;23;20538;-70
2024/03/23 14:24:16;;;;;;;9.32;2.22;;;;;;;;;;6176467;23;20494;-69
2024/03/23 14:26:42;;;;;;;8.13;1.63;;;;;;;;;;6165624;23;20238;-69
2024/03/23 14:29:11;;;;;;;10.45;1.95;;;;;;;;;;6167693;23;20510;-71
2024/03/23 14:31:36;;;;;;;;;;;;;;;;;;6152276;23;20456;-70